Terminal Aerodrome Forecast
Issued by NWS

Home | Current Version | Previous Version | Text Only | Print | Product List | Glossary On
Versions: 1 2 3 4 5 6 7 8 9 10 11 12 13 14
000
FTUS45 KRIW 011100
TAFRKS
TAF
KRKS 011140Z 0112/0212 26010KT P6SM SCT050 BKN080
     FM011600 27007KT P6SM SCT070
     FM012100 29012G20KT P6SM VCSH SCT030 BKN050
     FM020300 30011KT P6SM SCT060
     FM020700 25010KT P6SM SKC=

USA.gov is the U.S. government's official web portal to all federal, state and local government web resources and services.